createdAt,value
2023-01-07T00:01:35.419Z,8.71
2023-01-07T00:04:04.811Z,8.72
2023-01-07T00:06:36.128Z,8.76
2023-01-07T00:09:05.905Z,8.69
2023-01-07T00:11:35.721Z,8.73
2023-01-07T00:14:05.519Z,8.74
2023-01-07T00:16:34.712Z,8.73
2023-01-07T00:19:04.217Z,8.76
2023-01-07T00:21:34.017Z,8.75
2023-01-07T00:24:03.853Z,8.73
2023-01-07T00:26:33.246Z,8.55
2023-01-07T00:29:02.031Z,8.58
2023-01-07T00:31:31.833Z,8.49
2023-01-07T00:34:09.576Z,8.43
2023-01-07T00:36:41.525Z,8.42
2023-01-07T00:39:13.182Z,8.38
2023-01-07T00:42:01.435Z,8.48
2023-01-07T00:44:31.684Z,8.52
2023-01-07T00:47:00.408Z,8.53
2023-01-07T00:49:28.932Z,8.52
2023-01-07T00:51:58.715Z,8.50
2023-01-07T00:54:27.131Z,8.32
2023-01-07T00:56:55.420Z,8.36
2023-01-07T00:59:23.598Z,8.26
2023-01-07T01:01:52.369Z,8.42
2023-01-07T01:04:20.804Z,8.50
2023-01-07T01:06:49.051Z,8.57
2023-01-07T01:09:20.733Z,8.61
2023-01-07T01:11:48.890Z,8.65
2023-01-07T01:14:17.037Z,8.72
2023-01-07T01:16:47.183Z,8.76
2023-01-07T01:19:15.947Z,8.79
2023-01-07T01:21:44.045Z,8.80
2023-01-07T01:24:12.531Z,8.81
2023-01-07T01:26:42.347Z,8.79
2023-01-07T01:29:10.556Z,8.73
2023-01-07T01:31:39.763Z,8.66
2023-01-07T01:34:08.085Z,8.65
2023-01-07T01:36:36.326Z,8.66
2023-01-07T01:39:05.015Z,8.67
2023-01-07T01:41:35.585Z,8.70
2023-01-07T01:44:40.883Z,8.70
2023-01-07T01:47:20.817Z,8.62
2023-01-07T01:49:52.916Z,8.54
2023-01-07T01:52:23.194Z,8.44
2023-01-07T01:54:58.893Z,8.41
2023-01-07T01:57:28.970Z,8.44
2023-01-07T01:59:59.686Z,8.39
2023-01-07T02:02:32.316Z,8.39
2023-01-07T02:05:01.124Z,8.45
2023-01-07T02:07:30.385Z,8.45
2023-01-07T02:10:01.910Z,8.41
2023-01-07T02:12:40.357Z,8.40
2023-01-07T02:15:13.320Z,8.41
2023-01-07T02:17:52.332Z,8.34
2023-01-07T02:20:45.134Z,8.37
2023-01-07T02:23:57.610Z,8.42
2023-01-07T02:27:04.556Z,8.50
2023-01-07T02:30:09.948Z,8.48
2023-01-07T02:33:05.711Z,8.41
2023-01-07T02:35:45.949Z,8.36
2023-01-07T02:38:18.198Z,8.40
2023-01-07T02:40:52.691Z,8.43
2023-01-07T02:43:26.148Z,8.41
2023-01-07T02:46:02.384Z,8.42
2023-01-07T02:48:32.717Z,8.43
2023-01-07T02:51:00.952Z,8.34
2023-01-07T02:53:29.080Z,8.32
2023-01-07T02:56:10.135Z,8.36
2023-01-07T02:58:53.522Z,8.28
2023-01-07T03:01:39.512Z,8.28
2023-01-07T03:04:16.750Z,8.36
2023-01-07T03:06:57.633Z,8.39
2023-01-07T03:09:32.469Z,8.37
2023-01-07T03:12:07.085Z,8.34
2023-01-07T03:14:39.205Z,8.36
2023-01-07T03:17:08.376Z,8.35
2023-01-07T03:19:41.306Z,8.38
2023-01-07T03:22:10.281Z,8.40
2023-01-07T03:24:39.740Z,8.45
2023-01-07T03:27:09.352Z,8.51
2023-01-07T03:29:37.650Z,8.56
2023-01-07T03:32:10.923Z,8.53
2023-01-07T03:34:41.082Z,8.53
2023-01-07T03:37:12.792Z,8.56
2023-01-07T03:39:41.871Z,8.60
2023-01-07T03:42:28.648Z,8.57
2023-01-07T03:44:57.215Z,8.54
2023-01-07T03:47:27.792Z,8.55
2023-01-07T03:49:57.671Z,8.54
2023-01-07T03:52:25.966Z,8.54
2023-01-07T03:54:54.128Z,8.49
2023-01-07T03:57:22.798Z,8.45
2023-01-07T03:59:50.891Z,8.43
2023-01-07T04:02:19.584Z,8.48
2023-01-07T04:04:47.864Z,8.50
2023-01-07T04:07:17.625Z,8.51
2023-01-07T04:09:47.352Z,8.52
2023-01-07T04:12:15.524Z,8.50
2023-01-07T04:14:43.626Z,8.45
2023-01-07T04:17:12.064Z,8.18
2023-01-07T04:19:40.441Z,8.34
2023-01-07T04:22:08.930Z,8.42
2023-01-07T04:24:38.604Z,8.44
2023-01-07T04:27:06.911Z,8.46
2023-01-07T04:29:35.105Z,8.51
2023-01-07T04:32:03.934Z,8.54
2023-01-07T04:34:32.056Z,8.51
2023-01-07T04:37:00.246Z,8.53
2023-01-07T04:39:29.127Z,8.56
2023-01-07T04:41:59.075Z,8.55
2023-01-07T04:44:27.608Z,8.56
2023-01-07T04:46:57.432Z,8.50
2023-01-07T04:49:26.239Z,8.52
2023-01-07T04:51:55.529Z,8.42
2023-01-07T04:54:23.816Z,8.41
2023-01-07T04:56:53.558Z,8.42
2023-01-07T04:59:23.517Z,8.45
2023-01-07T05:01:52.362Z,8.44
2023-01-07T05:04:20.799Z,8.39
2023-01-07T05:06:49.045Z,8.43
2023-01-07T05:09:17.777Z,8.30
2023-01-07T05:11:46.148Z,8.30
2023-01-07T05:14:14.963Z,8.35
2023-01-07T05:16:45.949Z,8.38
2023-01-07T05:19:14.528Z,8.40
2023-01-07T05:21:47.304Z,8.36
2023-01-07T05:24:17.171Z,8.29
2023-01-07T05:26:46.385Z,8.38
2023-01-07T05:29:16.664Z,8.33
2023-01-07T05:31:47.160Z,8.36
2023-01-07T05:34:15.767Z,8.37
2023-01-07T05:36:45.611Z,8.43
2023-01-07T05:39:14.170Z,8.40
2023-01-07T05:41:43.411Z,8.42
2023-01-07T05:44:12.233Z,8.48
2023-01-07T05:46:40.571Z,8.52
2023-01-07T05:49:10.296Z,8.51
2023-01-07T05:51:38.739Z,8.50
2023-01-07T05:54:07.457Z,8.35
2023-01-07T05:56:35.714Z,8.34
2023-01-07T05:59:04.170Z,8.44
2023-01-07T06:01:32.661Z,8.48
2023-01-07T06:04:01.595Z,8.52
2023-01-07T06:06:31.116Z,8.53
2023-01-07T06:08:59.236Z,8.56
2023-01-07T06:11:27.372Z,8.57
2023-01-07T06:13:55.890Z,8.52
2023-01-07T06:16:24.449Z,8.45
2023-01-07T06:18:52.588Z,8.44
2023-01-07T06:21:21.592Z,8.45
2023-01-07T06:23:51.201Z,8.44
2023-01-07T06:26:19.592Z,8.36
2023-01-07T06:28:47.892Z,8.22
2023-01-07T06:31:16.387Z,8.26
2023-01-07T06:33:45.238Z,8.29
2023-01-07T06:36:13.707Z,8.31
2023-01-07T06:38:42.310Z,8.33
2023-01-07T06:41:12.025Z,8.32
2023-01-07T06:43:40.492Z,8.34
2023-01-07T06:46:09.451Z,8.33
2023-01-07T06:48:38.155Z,8.30
2023-01-07T06:51:06.693Z,8.31
2023-01-07T06:53:35.516Z,8.27
2023-01-07T06:56:03.934Z,8.17
2023-01-07T06:58:33.524Z,8.14
2023-01-07T07:01:05.124Z,8.12
2023-01-07T07:03:33.619Z,8.15
2023-01-07T07:06:02.255Z,8.13
2023-01-07T07:08:30.496Z,8.10
2023-01-07T07:10:58.786Z,8.05
2023-01-07T07:13:27.094Z,7.99
2023-01-07T07:15:57.423Z,7.93
2023-01-07T07:18:27.005Z,7.94
2023-01-07T07:20:55.445Z,7.95
2023-01-07T07:23:24.036Z,7.92
2023-01-07T07:25:53.003Z,7.92
2023-01-07T07:28:21.286Z,7.93
2023-01-07T07:30:50.110Z,7.90
2023-01-07T07:33:20.415Z,7.90
2023-01-07T07:35:51.514Z,7.86
2023-01-07T07:38:20.318Z,7.86
2023-01-07T07:40:49.172Z,7.83
2023-01-07T07:43:17.624Z,7.81
2023-01-07T07:45:46.158Z,7.79
2023-01-07T07:48:16.504Z,7.78
2023-01-07T07:50:46.487Z,7.70
2023-01-07T07:53:15.367Z,7.66
2023-01-07T07:55:44.019Z,7.67
2023-01-07T07:58:12.330Z,7.68
2023-01-07T08:00:40.449Z,7.65
2023-01-07T08:03:09.247Z,7.67
2023-01-07T08:05:38.319Z,7.62
2023-01-07T08:08:09.582Z,7.61
2023-01-07T08:10:39.689Z,7.64
2023-01-07T08:13:10.109Z,7.66
2023-01-07T08:15:39.020Z,7.66
2023-01-07T08:18:09.178Z,7.62
2023-01-07T08:20:38.431Z,7.59
2023-01-07T08:23:09.259Z,7.64
2023-01-07T08:25:37.400Z,7.64
2023-01-07T08:28:06.510Z,7.68
2023-01-07T08:30:34.639Z,7.58
2023-01-07T08:33:04.855Z,7.66
2023-01-07T08:35:33.590Z,7.61
2023-01-07T08:38:03.404Z,7.57
2023-01-07T08:40:33.424Z,7.51
2023-01-07T08:43:02.617Z,7.52
2023-01-07T08:45:31.816Z,7.61
2023-01-07T08:48:00.693Z,7.74
2023-01-07T08:50:30.260Z,7.77
2023-01-07T08:52:58.564Z,7.79
2023-01-07T08:55:27.396Z,7.87
2023-01-07T08:57:57.224Z,7.95
2023-01-07T09:00:25.476Z,7.52
2023-01-07T09:02:54.366Z,7.67
2023-01-07T09:05:24.689Z,7.80
2023-01-07T09:07:53.924Z,7.88
2023-01-07T09:10:22.686Z,7.94
2023-01-07T09:12:51.291Z,7.72
2023-01-07T09:15:21.172Z,7.81
2023-01-07T09:17:49.691Z,7.93
2023-01-07T09:20:18.107Z,7.90
2023-01-07T09:22:46.244Z,7.98
2023-01-07T09:25:14.640Z,7.77
2023-01-07T09:27:43.617Z,7.91
2023-01-07T09:30:12.735Z,8.04
2023-01-07T09:32:43.220Z,7.94
2023-01-07T09:35:12.206Z,7.99
2023-01-07T09:37:40.311Z,8.08
2023-01-07T09:40:10.171Z,8.22
2023-01-07T09:42:42.865Z,8.25
2023-01-07T09:45:16.716Z,8.32
2023-01-07T09:47:48.398Z,8.48
2023-01-07T09:50:24.931Z,8.44
2023-01-07T09:52:56.216Z,8.48
2023-01-07T09:55:29.304Z,8.59
2023-01-07T09:57:57.456Z,8.52
2023-01-07T10:00:26.666Z,8.56
2023-01-07T10:03:10.145Z,8.62
2023-01-07T10:05:42.779Z,8.56
2023-01-07T10:08:31.468Z,8.45
2023-01-07T10:11:05.939Z,8.51
2023-01-07T10:13:56.045Z,8.55
2023-01-07T10:16:29.088Z,8.38
2023-01-07T10:19:04.132Z,8.44
2023-01-07T10:21:39.959Z,8.51
2023-01-07T10:24:13.202Z,8.59
2023-01-07T10:26:44.056Z,8.54
2023-01-07T10:29:15.712Z,8.71
2023-01-07T10:31:44.991Z,8.69
2023-01-07T10:34:18.391Z,8.77
2023-01-07T10:36:56.451Z,8.77
2023-01-07T10:39:30.322Z,8.85
2023-01-07T10:42:06.187Z,8.85
2023-01-07T10:45:10.280Z,8.82
2023-01-07T10:47:50.182Z,8.70
2023-01-07T10:50:34.684Z,8.82
2023-01-07T10:53:09.169Z,8.88
2023-01-07T10:55:50.903Z,9.00
2023-01-07T10:58:19.030Z,8.83
2023-01-07T11:00:47.738Z,8.93
2023-01-07T11:03:21.110Z,9.09
2023-01-07T11:05:55.533Z,9.00
2023-01-07T11:08:30.227Z,9.07
2023-01-07T11:10:58.956Z,9.02
2023-01-07T11:13:29.912Z,8.96
2023-01-07T11:16:00.141Z,9.08
2023-01-07T11:18:32.347Z,9.22
2023-01-07T11:21:01.876Z,9.20
2023-01-07T11:23:33.307Z,9.13
2023-01-07T11:26:14.285Z,9.06
2023-01-07T11:28:44.651Z,9.00
2023-01-07T11:31:12.643Z,9.13
2023-01-07T11:34:01.786Z,9.25
2023-01-07T11:36:42.235Z,9.31
2023-01-07T11:39:11.556Z,9.30
2023-01-07T11:41:52.592Z,9.22
2023-01-07T11:44:20.733Z,9.25
2023-01-07T11:46:49.439Z,9.22
2023-01-07T11:49:35.139Z,9.16
2023-01-07T11:52:05.072Z,9.24
2023-01-07T11:54:33.889Z,9.30
2023-01-07T11:57:17.720Z,9.27
2023-01-07T11:59:46.895Z,9.39
2023-01-07T12:02:26.523Z,9.33
2023-01-07T12:05:20.084Z,9.38
2023-01-07T12:07:48.884Z,9.39
2023-01-07T12:10:43.801Z,9.23
2023-01-07T12:13:21.209Z,9.31
2023-01-07T12:15:52.185Z,9.33
2023-01-07T12:18:45.604Z,9.40
2023-01-07T12:21:36.548Z,9.38
2023-01-07T12:24:22.379Z,9.39
2023-01-07T12:26:56.240Z,9.45
2023-01-07T12:29:36.304Z,9.50
2023-01-07T12:32:15.760Z,9.59
2023-01-07T12:34:51.007Z,9.62
2023-01-07T12:37:31.493Z,9.61
2023-01-07T12:40:17.179Z,9.61
2023-01-07T12:42:50.747Z,9.49
2023-01-07T12:45:22.929Z,9.56
2023-01-07T12:47:54.890Z,9.49
2023-01-07T12:50:26.131Z,9.55
2023-01-07T12:53:00.189Z,9.59
2023-01-07T12:55:33.749Z,9.59
2023-01-07T12:58:09.237Z,9.65
2023-01-07T13:00:42.286Z,9.59
2023-01-07T13:03:20.001Z,9.59
2023-01-07T13:05:50.687Z,9.66
2023-01-07T13:08:26.127Z,9.72
2023-01-07T13:10:57.330Z,9.78
2023-01-07T13:13:28.709Z,9.91
2023-01-07T13:15:57.425Z,9.94
2023-01-07T13:18:25.749Z,9.98
2023-01-07T13:21:03.678Z,10.04
2023-01-07T13:23:47.275Z,10.11
2023-01-07T13:26:24.022Z,9.82
2023-01-07T13:29:13.243Z,9.96
2023-01-07T13:31:52.382Z,9.98
2023-01-07T13:34:26.243Z,10.04
2023-01-07T13:37:07.665Z,10.15
2023-01-07T13:39:50.820Z,10.10
2023-01-07T13:42:27.316Z,10.14
2023-01-07T13:45:03.026Z,10.12
2023-01-07T13:47:41.635Z,10.12
2023-01-07T13:50:19.885Z,10.03
2023-01-07T13:52:57.788Z,10.12
2023-01-07T13:55:38.926Z,10.23
2023-01-07T13:58:35.729Z,10.28
2023-01-07T14:01:06.360Z,10.28
2023-01-07T14:03:50.618Z,10.16
2023-01-07T14:06:42.632Z,9.78
2023-01-07T14:09:39.801Z,9.69
2023-01-07T14:12:46.215Z,9.95
2023-01-07T14:15:45.157Z,9.84
2023-01-07T14:18:39.019Z,9.70
2023-01-07T14:21:23.546Z,9.59
2023-01-07T14:24:16.729Z,9.66
2023-01-07T14:26:52.987Z,9.73
2023-01-07T14:29:30.397Z,9.73
2023-01-07T14:34:57.186Z,9.78
2023-01-07T14:37:36.433Z,9.96
2023-01-07T14:40:42.251Z,10.08
2023-01-07T14:44:01.391Z,10.18
2023-01-07T14:46:46.261Z,9.98
2023-01-07T14:49:53.831Z,10.08
2023-01-07T14:52:37.961Z,10.19
2023-01-07T14:55:20.815Z,10.21
2023-01-07T14:57:57.646Z,10.18
2023-01-07T15:00:41.167Z,10.19
2023-01-07T15:03:26.926Z,10.16
2023-01-07T15:06:14.624Z,10.12
2023-01-07T15:09:09.221Z,10.09
2023-01-07T15:11:55.861Z,10.13
2023-01-07T15:14:45.273Z,10.08
2023-01-07T15:17:14.521Z,10.03
2023-01-07T15:19:43.417Z,10.05
2023-01-07T15:22:23.862Z,10.02
2023-01-07T15:24:58.938Z,9.87
2023-01-07T15:27:32.919Z,9.91
2023-01-07T15:30:06.241Z,9.80
2023-01-07T15:32:44.793Z,9.56
2023-01-07T15:35:17.668Z,9.69
2023-01-07T15:37:46.882Z,9.73
2023-01-07T15:40:19.406Z,9.77
2023-01-07T15:42:49.046Z,9.76
2023-01-07T15:45:18.955Z,9.71
2023-01-07T15:47:47.219Z,9.67
2023-01-07T15:50:27.722Z,9.64
2023-01-07T15:52:57.635Z,9.60
2023-01-07T15:55:29.759Z,9.52
2023-01-07T15:58:02.457Z,9.40
2023-01-07T16:00:30.860Z,9.39
2023-01-07T16:02:59.459Z,9.30
2023-01-07T16:05:27.728Z,9.30
2023-01-07T16:07:57.348Z,9.19
2023-01-07T16:10:29.188Z,9.13
2023-01-07T16:12:58.602Z,9.12
2023-01-07T16:15:32.167Z,9.04
2023-01-07T16:18:01.541Z,8.98
2023-01-07T16:20:32.073Z,8.95
2023-01-07T16:23:21.897Z,8.86
2023-01-07T16:25:54.720Z,8.75
2023-01-07T16:28:25.008Z,8.74
2023-01-07T16:30:53.173Z,8.69
2023-01-07T16:33:23.011Z,8.50
2023-01-07T16:35:52.702Z,8.46
2023-01-07T16:38:21.567Z,8.45
2023-01-07T16:40:52.339Z,8.37
2023-01-07T16:43:43.635Z,7.83
2023-01-07T16:46:21.416Z,7.55
2023-01-07T16:49:10.234Z,7.65
2023-01-07T16:51:39.970Z,7.76
2023-01-07T16:54:40.333Z,7.84
2023-01-07T16:57:30.650Z,7.82
2023-01-07T17:00:01.706Z,7.82
2023-01-07T17:02:31.964Z,7.80
2023-01-07T17:05:18.380Z,7.70
2023-01-07T17:07:48.371Z,7.67
2023-01-07T17:10:21.532Z,7.62
2023-01-07T17:12:59.798Z,7.59
2023-01-07T17:15:36.724Z,7.53
2023-01-07T17:18:30.270Z,7.46
2023-01-07T17:21:00.106Z,7.44
2023-01-07T17:23:45.743Z,7.36
2023-01-07T17:26:20.397Z,6.85
2023-01-07T17:28:52.540Z,7.02
2023-01-07T17:31:21.329Z,7.16
2023-01-07T17:33:49.653Z,7.23
2023-01-07T17:36:18.860Z,7.18
2023-01-07T17:38:47.629Z,6.96
2023-01-07T17:41:31.567Z,7.04
2023-01-07T17:44:01.747Z,7.06
2023-01-07T17:46:31.135Z,6.75
2023-01-07T17:49:00.960Z,6.80
2023-01-07T17:51:30.206Z,6.55
2023-01-07T17:53:59.186Z,6.54
2023-01-07T17:56:27.547Z,6.47
2023-01-07T17:58:56.276Z,6.32
2023-01-07T18:01:27.094Z,6.41
2023-01-07T18:03:55.725Z,6.48
2023-01-07T18:06:27.393Z,6.31
2023-01-07T18:08:56.708Z,6.30
2023-01-07T18:11:45.780Z,6.41
2023-01-07T18:14:15.578Z,6.42
2023-01-07T18:16:45.988Z,6.39
2023-01-07T18:19:15.324Z,6.39
2023-01-07T18:21:43.595Z,6.26
2023-01-07T18:24:15.725Z,6.02
2023-01-07T18:26:44.390Z,5.69
2023-01-07T18:29:14.179Z,5.68
2023-01-07T18:31:43.752Z,5.56
2023-01-07T18:34:15.173Z,5.54
2023-01-07T18:36:43.506Z,5.50
2023-01-07T18:39:19.167Z,5.43
2023-01-07T18:41:50.282Z,5.47
2023-01-07T18:44:18.926Z,5.54
2023-01-07T18:46:47.050Z,5.62
2023-01-07T18:49:17.546Z,5.62
2023-01-07T18:51:47.219Z,5.57
2023-01-07T18:54:16.895Z,5.44
2023-01-07T18:56:46.248Z,5.22
2023-01-07T18:59:14.506Z,5.25
2023-01-07T19:01:43.124Z,5.31
2023-01-07T19:04:11.554Z,5.39
2023-01-07T19:06:41.368Z,5.42
2023-01-07T19:09:09.530Z,5.37
2023-01-07T19:11:38.423Z,5.34
2023-01-07T19:14:06.827Z,5.38
2023-01-07T19:16:35.549Z,5.34
2023-01-07T19:19:04.457Z,5.26
2023-01-07T19:21:32.485Z,5.26
2023-01-07T19:24:04.465Z,5.22
2023-01-07T19:26:33.871Z,5.30
2023-01-07T19:29:03.458Z,5.19
2023-01-07T19:31:32.166Z,4.56
2023-01-07T19:34:00.475Z,4.11
2023-01-07T19:36:28.695Z,3.97
2023-01-07T19:38:56.919Z,4.18
2023-01-07T19:41:26.619Z,4.28
2023-01-07T19:44:00.065Z,4.22
2023-01-07T19:46:29.109Z,4.08
2023-01-07T19:48:57.532Z,4.25
2023-01-07T19:51:25.870Z,4.35
2023-01-07T19:53:54.047Z,4.44
2023-01-07T19:56:22.214Z,4.52
2023-01-07T19:58:53.585Z,4.59
2023-01-07T20:01:24.540Z,4.63
2023-01-07T20:03:53.486Z,4.65
2023-01-07T20:06:23.508Z,4.53
2023-01-07T20:08:54.011Z,4.50
2023-01-07T20:11:22.214Z,4.54
2023-01-07T20:13:52.092Z,4.62
2023-01-07T20:16:22.112Z,4.61
2023-01-07T20:18:51.484Z,4.50
2023-01-07T20:21:21.255Z,4.25
2023-01-07T20:23:49.587Z,4.20
2023-01-07T20:26:20.176Z,4.17
2023-01-07T20:28:49.199Z,4.20
2023-01-07T20:31:21.552Z,4.23
2023-01-07T20:33:51.064Z,4.20
2023-01-07T20:36:21.288Z,4.27
2023-01-07T20:38:49.970Z,4.33
2023-01-07T20:41:20.209Z,4.34
2023-01-07T20:43:52.280Z,4.33
2023-01-07T20:46:22.631Z,4.21
2023-01-07T20:48:51.279Z,4.25
2023-01-07T20:51:20.654Z,4.19
2023-01-07T20:53:49.550Z,4.18
2023-01-07T20:56:19.763Z,4.19
2023-01-07T20:58:49.599Z,4.13
2023-01-07T21:01:20.011Z,4.19
2023-01-07T21:03:50.671Z,4.16
2023-01-07T21:06:20.455Z,4.04
2023-01-07T21:08:50.060Z,4.00
2023-01-07T21:11:20.196Z,3.98
2023-01-07T21:13:49.797Z,4.04
2023-01-07T21:16:18.949Z,4.04
2023-01-07T21:18:48.076Z,3.97
2023-01-07T21:21:19.165Z,3.91
2023-01-07T21:23:48.824Z,3.96
2023-01-07T21:26:18.366Z,3.93
2023-01-07T21:28:46.916Z,3.92
2023-01-07T21:31:16.882Z,3.89
2023-01-07T21:33:45.337Z,3.94
2023-01-07T21:36:15.888Z,3.88
2023-01-07T21:38:46.816Z,3.93
2023-01-07T21:41:18.272Z,3.87
2023-01-07T21:43:47.080Z,3.87
2023-01-07T21:46:16.128Z,3.88
2023-01-07T21:48:47.184Z,3.83
2023-01-07T21:51:18.839Z,3.85
2023-01-07T21:53:49.034Z,3.82
2023-01-07T21:56:19.232Z,3.73
2023-01-07T21:58:48.353Z,3.70
2023-01-07T22:01:17.783Z,3.57
2023-01-07T22:03:48.474Z,3.58
2023-01-07T22:06:19.523Z,3.54
2023-01-07T22:08:50.384Z,3.58
2023-01-07T22:11:19.344Z,3.47
2023-01-07T22:13:50.967Z,3.31
2023-01-07T22:16:20.026Z,3.36
2023-01-07T22:18:48.537Z,3.37
2023-01-07T22:21:17.876Z,3.40
2023-01-07T22:23:47.738Z,3.40
2023-01-07T22:26:21.977Z,3.35
2023-01-07T22:28:53.118Z,3.37
2023-01-07T22:31:23.488Z,3.34
2023-01-07T22:33:52.438Z,3.37
2023-01-07T22:36:24.385Z,3.17
2023-01-07T22:38:53.994Z,2.98
2023-01-07T22:41:24.779Z,2.96
2023-01-07T22:43:54.216Z,2.97
2023-01-07T22:46:25.135Z,2.97
2023-01-07T22:49:04.236Z,3.02
2023-01-07T22:51:38.649Z,3.00
2023-01-07T22:54:07.908Z,2.69
2023-01-07T22:56:38.136Z,2.64
2023-01-07T22:59:07.568Z,2.70
2023-01-07T23:01:38.012Z,2.73
2023-01-07T23:04:06.926Z,2.77
2023-01-07T23:06:35.885Z,2.77
2023-01-07T23:09:05.256Z,2.80
2023-01-07T23:11:49.256Z,2.69
2023-01-07T23:14:21.251Z,2.68
2023-01-07T23:16:50.681Z,2.78
2023-01-07T23:19:20.601Z,2.74
2023-01-07T23:21:51.789Z,2.77
2023-01-07T23:24:21.504Z,2.80
2023-01-07T23:26:52.172Z,2.77
2023-01-07T23:29:22.228Z,2.72
2023-01-07T23:31:51.431Z,2.63
2023-01-07T23:34:23.503Z,2.62
2023-01-07T23:36:52.687Z,2.65
2023-01-07T23:39:21.698Z,2.63
2023-01-07T23:41:50.783Z,2.72
2023-01-07T23:44:19.397Z,2.79
2023-01-07T23:46:49.700Z,2.76
2023-01-07T23:49:18.375Z,2.84
2023-01-07T23:51:46.976Z,2.77
2023-01-07T23:54:15.733Z,2.78
2023-01-07T23:57:09.119Z,2.54
2023-01-07T23:59:38.175Z,2.39
